createdAt,value
2017-12-11T00:01:35.657Z,18.37
2017-12-11T00:04:03.912Z,6.97
2017-12-11T00:06:31.372Z,9.07
2017-12-11T00:08:59.028Z,7.30
2017-12-11T00:11:26.502Z,16.23
2017-12-11T00:13:54.760Z,7.30
2017-12-11T00:16:22.291Z,8.30
2017-12-11T00:18:49.780Z,6.23
2017-12-11T00:21:17.249Z,9.77
2017-12-11T00:23:45.482Z,10.23
2017-12-11T00:26:12.996Z,6.87
2017-12-11T00:28:41.226Z,6.20
2017-12-11T00:31:08.733Z,8.70
2017-12-11T00:33:36.962Z,7.13
2017-12-11T00:36:04.430Z,7.13
2017-12-11T00:38:31.907Z,7.07
2017-12-11T00:40:59.393Z,6.83
2017-12-11T00:43:27.819Z,5.73
2017-12-11T00:45:55.310Z,12.57
2017-12-11T00:48:23.847Z,6.07
2017-12-11T00:50:51.303Z,5.93
2017-12-11T00:53:18.828Z,6.53
2017-12-11T00:55:46.314Z,5.67
2017-12-11T00:58:13.832Z,5.57
2017-12-11T01:00:42.094Z,6.17
2017-12-11T01:03:09.586Z,5.43
2017-12-11T01:05:38.024Z,7.60
2017-12-11T01:08:05.504Z,5.03
2017-12-11T01:10:32.962Z,5.10
2017-12-11T01:13:01.231Z,5.37
2017-12-11T01:15:28.749Z,5.27
2017-12-11T01:17:56.231Z,3.40
2017-12-11T01:20:23.779Z,4.70
2017-12-11T01:22:51.268Z,5.77
2017-12-11T01:25:19.061Z,10.50
2017-12-11T01:27:46.532Z,6.90
2017-12-11T01:30:14.018Z,8.00
2017-12-11T01:32:41.499Z,6.03
2017-12-11T01:35:09.002Z,11.30
2017-12-11T01:37:36.486Z,8.37
2017-12-11T01:40:04.006Z,5.23
2017-12-11T01:42:32.282Z,6.67
2017-12-11T01:45:00.526Z,5.33
2017-12-11T01:47:27.990Z,6.97
2017-12-11T01:49:55.463Z,6.37
2017-12-11T01:52:22.943Z,6.37
2017-12-11T01:54:51.245Z,6.60
2017-12-11T01:57:18.735Z,8.27
2017-12-11T01:59:47.237Z,8.00
2017-12-11T02:02:14.700Z,7.27
2017-12-11T02:04:42.167Z,6.37
2017-12-11T02:07:10.421Z,9.07
2017-12-11T02:09:37.887Z,7.00
2017-12-11T02:12:06.142Z,7.30
2017-12-11T02:14:33.624Z,7.63
2017-12-11T02:17:01.115Z,6.87
2017-12-11T02:19:28.692Z,7.50
2017-12-11T02:21:56.178Z,22.57
2017-12-11T02:24:23.655Z,9.40
2017-12-11T02:26:51.126Z,7.20
2017-12-11T02:29:18.627Z,7.00
2017-12-11T02:31:46.142Z,9.17
2017-12-11T02:34:13.647Z,9.80
2017-12-11T02:36:41.118Z,10.17
2017-12-11T02:39:09.043Z,8.67
2017-12-11T02:41:37.274Z,8.93
2017-12-11T02:44:04.762Z,10.60
2017-12-11T02:46:33.015Z,11.50
2017-12-11T02:49:00.474Z,6.80
2017-12-11T02:51:27.988Z,9.03
2017-12-11T02:53:55.456Z,7.60
2017-12-11T02:56:22.918Z,8.03
2017-12-11T02:58:50.405Z,6.70
2017-12-11T03:01:17.920Z,7.03
2017-12-11T03:03:45.388Z,12.63
2017-12-11T03:06:12.854Z,11.60
2017-12-11T03:08:40.355Z,9.83
2017-12-11T03:11:07.836Z,10.57
2017-12-11T03:13:36.053Z,12.47
2017-12-11T03:16:03.564Z,12.87
2017-12-11T03:18:31.051Z,11.97
2017-12-11T03:20:58.555Z,13.30
2017-12-11T03:23:26.809Z,12.33
2017-12-11T03:25:54.362Z,13.87
2017-12-11T03:28:21.846Z,17.17
2017-12-11T03:30:49.323Z,18.63
2017-12-11T03:33:16.792Z,20.90
2017-12-11T03:35:45.046Z,17.30
2017-12-11T03:38:12.506Z,21.10
2017-12-11T03:40:39.966Z,19.43
2017-12-11T03:43:08.227Z,16.80
2017-12-11T03:45:35.696Z,19.37
2017-12-11T03:48:03.206Z,23.10
2017-12-11T03:50:30.673Z,24.33
2017-12-11T03:52:58.223Z,24.20
2017-12-11T03:55:25.689Z,23.50
2017-12-11T03:57:53.200Z,25.07
2017-12-11T04:00:20.705Z,29.63
2017-12-11T04:02:48.192Z,28.37
2017-12-11T04:05:15.678Z,23.00
2017-12-11T04:07:43.235Z,30.57
2017-12-11T04:10:11.057Z,34.23
2017-12-11T04:12:38.535Z,26.67
2017-12-11T04:15:06.083Z,32.03
2017-12-11T04:17:33.543Z,28.90
2017-12-11T04:20:01.050Z,36.70
2017-12-11T04:22:29.304Z,46.37
2017-12-11T04:24:56.766Z,34.63
2017-12-11T04:27:24.317Z,28.53
2017-12-11T04:29:51.822Z,35.10
2017-12-11T04:32:20.080Z,28.57
2017-12-11T04:34:48.324Z,33.13
2017-12-11T04:37:15.809Z,30.40
2017-12-11T04:39:43.704Z,40.77
2017-12-11T04:42:11.942Z,36.00
2017-12-11T04:44:39.414Z,33.80
2017-12-11T04:47:07.667Z,37.60
2017-12-11T04:49:35.156Z,35.03
2017-12-11T04:52:03.417Z,37.17
2017-12-11T04:54:30.899Z,42.90
2017-12-11T04:56:59.519Z,48.77
2017-12-11T04:59:27.011Z,37.13
2017-12-11T05:01:54.467Z,41.03
2017-12-11T05:04:21.950Z,40.03
2017-12-11T05:06:50.176Z,45.90
2017-12-11T05:09:17.642Z,45.83
2017-12-11T05:11:45.141Z,42.10
2017-12-11T05:14:13.374Z,39.00
2017-12-11T05:16:40.843Z,47.87
2017-12-11T05:19:08.354Z,46.27
2017-12-11T05:21:35.849Z,44.30
2017-12-11T05:24:03.382Z,44.67
2017-12-11T05:26:30.854Z,32.87
2017-12-11T05:28:58.456Z,41.50
2017-12-11T05:31:29.986Z,32.00
2017-12-11T05:33:57.572Z,45.30
2017-12-11T05:36:25.074Z,40.00
2017-12-11T05:38:52.691Z,36.00
2017-12-11T05:41:20.355Z,58.57
2017-12-11T05:43:48.846Z,47.83
2017-12-11T05:46:17.107Z,47.70
2017-12-11T05:48:47.011Z,42.97
2017-12-11T05:51:14.567Z,44.13
2017-12-11T05:53:42.060Z,42.40
2017-12-11T05:56:09.534Z,45.67
2017-12-11T05:58:37.797Z,49.17
2017-12-11T06:01:06.082Z,59.33
2017-12-11T06:03:34.748Z,48.07
2017-12-11T06:06:04.427Z,51.00
2017-12-11T06:08:31.989Z,51.23
2017-12-11T06:10:59.532Z,44.90
2017-12-11T06:13:26.999Z,39.50
2017-12-11T06:15:54.538Z,45.47
2017-12-11T06:18:22.012Z,51.57
2017-12-11T06:20:49.556Z,41.07
2017-12-11T06:23:17.014Z,42.53
2017-12-11T06:25:44.609Z,36.33
2017-12-11T06:28:12.077Z,33.30
2017-12-11T06:30:39.622Z,34.20
2017-12-11T06:33:07.159Z,56.10
2017-12-11T06:35:34.707Z,44.90
2017-12-11T06:38:02.193Z,48.10
2017-12-11T06:40:29.678Z,38.87
2017-12-11T06:42:57.761Z,44.63
2017-12-11T06:45:25.509Z,50.53
2017-12-11T06:47:53.426Z,38.27
2017-12-11T06:50:21.685Z,40.40
2017-12-11T06:52:50.336Z,44.57
2017-12-11T06:55:18.197Z,47.97
2017-12-11T06:57:45.912Z,45.13
2017-12-11T07:00:14.542Z,41.60
2017-12-11T07:02:43.077Z,36.40
2017-12-11T07:05:12.073Z,41.63
2017-12-11T07:07:43.726Z,46.00
2017-12-11T07:10:19.157Z,41.80
2017-12-11T07:12:47.043Z,50.23
2017-12-11T07:15:15.722Z,49.20
2017-12-11T07:17:43.387Z,43.57
2017-12-11T07:20:11.967Z,50.67
2017-12-11T07:22:40.545Z,52.07
2017-12-11T07:25:08.720Z,51.77
2017-12-11T07:27:37.404Z,56.87
2017-12-11T07:30:05.414Z,49.20
2017-12-11T07:32:33.851Z,65.87
2017-12-11T07:35:02.029Z,54.73
2017-12-11T07:37:30.197Z,71.67
2017-12-11T07:39:58.367Z,82.73
2017-12-11T07:42:26.544Z,76.13
2017-12-11T07:44:54.572Z,69.73
2017-12-11T07:47:37.760Z,65.40
2017-12-11T16:33:57.159Z,3.30
2017-12-11T16:36:24.668Z,2.43
2017-12-11T16:38:54.839Z,8.77
2017-12-11T16:41:22.431Z,4.40
2017-12-11T16:43:50.711Z,12.90
2017-12-11T16:46:18.226Z,9.20
2017-12-11T16:48:45.808Z,2.27
2017-12-11T16:51:14.234Z,3.23
2017-12-11T16:53:41.761Z,7.60
2017-12-11T16:56:09.259Z,4.90
2017-12-11T16:58:37.714Z,4.40
2017-12-11T17:01:05.904Z,5.90
2017-12-11T17:03:33.466Z,3.77
2017-12-11T17:06:00.966Z,2.27
2017-12-11T17:08:28.431Z,8.27
2017-12-11T17:10:56.865Z,6.10
2017-12-11T17:13:24.375Z,1.40
2017-12-11T17:15:53.413Z,4.30
2017-12-11T17:18:20.923Z,9.37
2017-12-11T17:20:48.455Z,3.83
2017-12-11T17:23:16.024Z,3.80
2017-12-11T17:25:43.592Z,2.50
2017-12-11T17:28:11.109Z,10.60
2017-12-11T17:30:39.403Z,2.83
2017-12-11T17:33:06.875Z,2.40
2017-12-11T17:35:34.447Z,2.30
2017-12-11T17:38:03.414Z,4.17
2017-12-11T17:40:30.888Z,5.73
2017-12-11T17:42:58.352Z,3.20
2017-12-11T17:45:25.817Z,3.00
2017-12-11T17:47:53.315Z,5.30
2017-12-11T17:50:21.747Z,4.17
2017-12-11T17:52:50.204Z,4.30
2017-12-11T17:55:17.709Z,7.17
2017-12-11T17:57:46.334Z,2.63
2017-12-11T18:00:13.822Z,3.93
2017-12-11T18:02:41.327Z,1.87
2017-12-11T18:05:09.349Z,3.73
2017-12-11T18:07:36.840Z,2.97
2017-12-11T18:10:04.288Z,3.07
2017-12-11T18:12:32.872Z,4.80
2017-12-11T18:15:00.408Z,3.93
2017-12-11T18:17:27.950Z,1.33
2017-12-11T18:19:55.607Z,1.47
2017-12-11T18:22:25.038Z,5.03
2017-12-11T18:24:52.514Z,1.60
2017-12-11T18:27:20.748Z,3.23
2017-12-11T18:29:48.224Z,10.13
2017-12-11T18:32:15.719Z,2.10
2017-12-11T18:34:44.253Z,2.37
2017-12-11T18:37:11.736Z,2.60
2017-12-11T18:39:40.112Z,1.57
2017-12-11T18:42:08.376Z,1.53
2017-12-11T18:44:35.845Z,1.43
2017-12-11T18:47:04.117Z,2.40
2017-12-11T18:49:31.589Z,2.40
2017-12-11T18:51:59.852Z,6.03
2017-12-11T18:54:27.311Z,1.40
2017-12-11T18:56:55.818Z,2.07
2017-12-11T18:59:23.294Z,1.47
2017-12-11T19:01:51.400Z,2.33
2017-12-11T19:04:18.964Z,1.70
2017-12-11T19:06:46.743Z,3.00
2017-12-11T19:09:14.261Z,1.67
2017-12-11T19:11:41.761Z,4.93
2017-12-11T19:14:10.051Z,2.40
2017-12-11T19:16:38.294Z,2.50
2017-12-11T19:19:05.790Z,4.00
2017-12-11T19:21:34.027Z,3.70
2017-12-11T19:24:01.745Z,2.60
2017-12-11T19:26:29.285Z,1.63
2017-12-11T19:28:57.894Z,1.83
2017-12-11T19:31:25.458Z,2.70
2017-12-11T19:33:53.245Z,1.50
2017-12-11T19:36:20.824Z,2.90
2017-12-11T19:38:49.105Z,1.40
2017-12-11T19:41:16.844Z,2.07
2017-12-11T19:43:45.711Z,1.60
2017-12-11T19:46:13.882Z,1.67
2017-12-11T19:48:41.467Z,1.70
2017-12-11T19:51:09.273Z,1.93
2017-12-11T19:53:36.815Z,1.70
2017-12-11T19:56:05.064Z,6.07
2017-12-11T19:58:32.843Z,1.57
2017-12-11T20:01:00.468Z,1.67
2017-12-11T20:03:27.923Z,2.03
2017-12-11T20:05:55.684Z,1.80
2017-12-11T20:08:24.381Z,3.20
2017-12-11T20:10:52.262Z,1.67
2017-12-11T20:13:21.699Z,2.50
2017-12-11T20:15:49.959Z,2.13
2017-12-11T20:18:17.689Z,1.53
2017-12-11T20:20:46.004Z,1.53
2017-12-11T20:23:15.167Z,2.23
2017-12-11T20:25:43.872Z,2.80
2017-12-11T20:28:17.442Z,2.60
2017-12-11T20:30:46.103Z,1.60
2017-12-11T20:33:14.702Z,1.90
2017-12-11T20:35:44.191Z,2.50
2017-12-11T20:38:11.756Z,4.63
2017-12-11T20:40:39.318Z,4.83
2017-12-11T20:43:07.064Z,3.47
2017-12-11T20:45:34.901Z,4.20
2017-12-11T20:48:03.531Z,3.23
2017-12-11T20:50:31.845Z,2.33
2017-12-11T20:52:59.501Z,2.00
2017-12-11T20:55:27.024Z,3.30
2017-12-11T20:57:54.491Z,2.10
2017-12-11T21:00:22.153Z,2.70
2017-12-11T21:02:50.382Z,3.07
2017-12-11T21:05:18.625Z,2.87
2017-12-11T21:07:46.148Z,3.90
2017-12-11T21:10:13.643Z,3.00
2017-12-11T21:12:41.130Z,2.40
2017-12-11T21:15:09.372Z,2.50
2017-12-11T21:17:36.839Z,2.53
2017-12-11T21:20:05.129Z,3.13
2017-12-11T21:22:33.038Z,3.20
2017-12-11T21:25:00.537Z,3.60
2017-12-11T21:27:28.029Z,3.90
2017-12-11T21:29:56.280Z,3.87
2017-12-11T21:32:24.126Z,3.57
2017-12-11T21:34:52.426Z,4.50
2017-12-11T21:37:19.924Z,3.30
2017-12-11T21:40:08.550Z,2.70
2017-12-11T21:42:36.800Z,3.00
2017-12-11T21:45:04.452Z,4.67
2017-12-11T21:47:31.984Z,6.00
2017-12-11T21:49:59.464Z,12.60
2017-12-11T21:52:26.967Z,8.63
2017-12-11T21:54:55.201Z,9.07
2017-12-11T21:57:24.218Z,8.87
2017-12-11T21:59:52.204Z,12.30
2017-12-11T22:02:21.386Z,18.43
2017-12-11T22:04:49.655Z,15.90
2017-12-11T22:07:18.988Z,21.73
2017-12-11T22:09:46.481Z,23.97
2017-12-11T22:12:14.164Z,21.90
2017-12-11T22:14:41.778Z,34.60
2017-12-11T22:17:09.263Z,31.83
2017-12-11T22:19:36.730Z,21.77
2017-12-11T22:22:04.222Z,25.60
2017-12-11T22:24:32.687Z,27.53
2017-12-11T22:27:03.220Z,31.07
2017-12-11T22:29:30.674Z,23.73
2017-12-11T22:32:00.571Z,22.87
2017-12-11T22:34:28.882Z,27.90
2017-12-11T22:36:57.124Z,24.93
2017-12-11T22:39:25.468Z,29.43
2017-12-11T22:41:52.972Z,22.73
2017-12-11T22:44:21.298Z,32.70
2017-12-11T22:46:48.899Z,28.50
2017-12-11T22:49:16.422Z,21.60
2017-12-11T22:51:43.893Z,22.17
2017-12-11T22:54:12.621Z,23.30
2017-12-11T22:56:40.862Z,26.57
2017-12-11T22:59:10.513Z,32.50
2017-12-11T23:01:37.995Z,28.20
2017-12-11T23:04:05.515Z,29.40
2017-12-11T23:06:33.762Z,31.00
2017-12-11T23:09:01.247Z,37.67
2017-12-11T23:11:29.498Z,32.50
2017-12-11T23:13:56.986Z,32.57
2017-12-11T23:16:25.244Z,31.90
2017-12-11T23:18:52.724Z,34.53
2017-12-11T23:21:20.362Z,33.93
2017-12-11T23:23:47.840Z,37.17
2017-12-11T23:26:15.370Z,34.27
2017-12-11T23:28:42.848Z,42.63
2017-12-11T23:31:11.132Z,40.97
2017-12-11T23:33:38.613Z,41.97
2017-12-11T23:36:06.090Z,44.43
2017-12-11T23:38:33.554Z,45.17
2017-12-11T23:41:01.032Z,49.80
2017-12-11T23:43:28.522Z,44.97
2017-12-11T23:45:56.058Z,47.17
2017-12-11T23:48:24.306Z,46.90
2017-12-11T23:50:51.785Z,58.10
2017-12-11T23:53:20.073Z,55.33
2017-12-11T23:55:48.341Z,61.10
2017-12-11T23:58:16.609Z,34.70
